createdAt,value
2022-12-28T00:00:31.513Z,3.65
2022-12-28T00:03:17.426Z,4.03
2022-12-28T00:06:03.861Z,2.75
2022-12-28T00:08:52.910Z,2.92
2022-12-28T00:11:38.800Z,2.83
2022-12-28T00:14:25.243Z,3.85
2022-12-28T00:17:11.158Z,4.55
2022-12-28T00:19:57.291Z,3.60
2022-12-28T00:22:43.406Z,3.90
2022-12-28T00:25:29.310Z,3.78
2022-12-28T00:28:15.103Z,2.78
2022-12-28T00:31:00.966Z,2.35
2022-12-28T00:33:46.834Z,2.30
2022-12-28T00:37:09.427Z,2.20
2022-12-28T00:39:38.919Z,2.00
2022-12-28T00:42:24.685Z,2.50
2022-12-28T00:45:10.532Z,2.20
2022-12-28T00:47:56.489Z,2.50
2022-12-28T00:50:43.495Z,2.95
2022-12-28T00:53:29.908Z,2.25
2022-12-28T00:56:17.856Z,2.65
2022-12-28T00:59:03.639Z,2.42
2022-12-28T01:01:49.450Z,3.10
2022-12-28T01:04:35.799Z,2.72
2022-12-28T01:07:21.620Z,2.75
2022-12-28T01:10:07.819Z,2.03
2022-12-28T01:12:55.273Z,2.78
2022-12-28T01:15:41.138Z,2.85
2022-12-28T01:18:26.960Z,2.58
2022-12-28T01:21:16.146Z,2.50
2022-12-28T01:24:04.331Z,2.55
2022-12-28T01:26:51.045Z,2.17
2022-12-28T01:29:36.904Z,2.25
2022-12-28T01:32:22.780Z,1.95
2022-12-28T01:35:09.769Z,2.70
2022-12-28T01:37:57.266Z,1.80
2022-12-28T01:40:44.090Z,2.38
2022-12-28T01:43:43.954Z,2.53
2022-12-28T01:46:38.806Z,2.88
2022-12-28T01:49:37.439Z,3.05
2022-12-28T01:52:38.652Z,3.58
2022-12-28T01:55:35.368Z,3.28
2022-12-28T01:58:25.370Z,3.30
2022-12-28T02:01:11.494Z,3.17
2022-12-28T02:03:57.506Z,3.70
2022-12-28T02:06:44.530Z,3.13
2022-12-28T02:09:35.601Z,3.00
2022-12-28T02:12:22.422Z,3.70
2022-12-28T02:15:08.819Z,3.85
2022-12-28T02:17:54.910Z,3.33
2022-12-28T02:21:02.968Z,3.20
2022-12-28T02:24:07.895Z,4.90
2022-12-28T02:26:58.332Z,4.30
2022-12-28T02:29:44.438Z,3.53
2022-12-28T02:32:54.698Z,2.80
2022-12-28T02:35:43.584Z,2.75
2022-12-28T02:38:39.314Z,2.17
2022-12-28T02:41:26.050Z,2.40
2022-12-28T02:44:33.273Z,2.15
2022-12-28T02:47:37.635Z,1.83
2022-12-28T02:50:26.012Z,1.95
2022-12-28T02:54:38.331Z,2.00
2022-12-28T02:57:58.205Z,1.60
2022-12-28T03:00:58.818Z,1.90
2022-12-28T03:04:03.874Z,1.80
2022-12-28T03:07:35.596Z,1.73
2022-12-28T03:10:27.212Z,2.00
2022-12-28T03:13:36.032Z,1.83
2022-12-28T03:16:29.678Z,1.67
2022-12-28T03:19:34.411Z,1.83
2022-12-28T03:22:40.563Z,1.65
2022-12-28T03:25:52.955Z,1.60
2022-12-28T03:29:04.548Z,1.80
2022-12-28T03:31:53.242Z,2.15
2022-12-28T03:34:40.533Z,1.80
2022-12-28T03:37:35.122Z,1.73
2022-12-28T03:40:35.682Z,1.52
2022-12-28T03:43:43.041Z,1.52
2022-12-28T03:46:52.472Z,2.10
2022-12-28T03:49:40.137Z,1.70
2022-12-28T03:52:26.964Z,1.70
2022-12-28T03:55:17.088Z,1.70
2022-12-28T03:58:05.370Z,1.42
2022-12-28T04:00:51.470Z,1.50
2022-12-28T04:03:41.703Z,1.70
2022-12-28T04:06:28.203Z,1.50
2022-12-28T04:09:15.359Z,1.50
2022-12-28T04:12:01.521Z,1.30
2022-12-28T04:15:16.963Z,1.30
2022-12-28T04:18:02.965Z,1.40
2022-12-28T04:20:48.659Z,1.60
2022-12-28T04:23:35.068Z,1.35
2022-12-28T04:26:41.269Z,1.35
2022-12-28T04:29:29.045Z,1.20
2022-12-28T04:32:27.740Z,1.30
2022-12-28T04:51:06.703Z,1.50
2022-12-28T04:53:53.670Z,1.73
2022-12-28T04:56:39.966Z,1.50
2022-12-28T04:59:25.968Z,2.00
2022-12-28T05:02:12.011Z,1.65
2022-12-28T05:04:58.072Z,1.95
2022-12-28T05:07:44.024Z,1.60
2022-12-28T05:10:30.267Z,1.65
2022-12-28T05:13:16.237Z,1.70
2022-12-28T05:16:03.781Z,2.10
2022-12-28T05:18:49.764Z,2.15
2022-12-28T05:21:35.646Z,2.17
2022-12-28T05:24:21.599Z,2.20
2022-12-28T05:27:07.531Z,2.05
2022-12-28T05:29:53.384Z,2.03
2022-12-28T05:32:39.397Z,1.85
2022-12-28T05:35:25.229Z,2.30
2022-12-28T05:38:11.167Z,2.33
2022-12-28T05:40:57.058Z,1.90
2022-12-28T05:43:43.762Z,1.85
2022-12-28T05:46:31.707Z,2.10
2022-12-28T05:49:17.569Z,1.95
2022-12-28T05:52:03.415Z,2.10
2022-12-28T05:54:49.334Z,2.17
2022-12-28T05:57:35.159Z,2.00
2022-12-28T06:00:21.059Z,2.40
2022-12-28T06:03:07.116Z,2.80
2022-12-28T06:05:53.264Z,2.40
2022-12-28T06:08:39.915Z,2.90
2022-12-28T06:11:27.216Z,3.00
2022-12-28T06:14:12.882Z,2.40
2022-12-28T06:16:58.630Z,2.80
2022-12-28T06:19:44.518Z,2.67
2022-12-28T06:22:30.371Z,2.20
2022-12-28T06:25:16.306Z,3.05
2022-12-28T06:28:01.944Z,2.72
2022-12-28T06:30:52.531Z,3.67
2022-12-28T06:33:39.742Z,3.60
2022-12-28T06:36:31.434Z,3.50
2022-12-28T06:39:17.546Z,3.50
2022-12-28T06:42:03.345Z,3.78
2022-12-28T06:44:49.218Z,3.17
2022-12-28T06:47:37.155Z,3.70
2022-12-28T06:50:22.945Z,4.00
2022-12-28T06:53:08.829Z,3.42
2022-12-28T06:55:56.449Z,3.80
2022-12-28T06:58:43.185Z,3.30
2022-12-28T07:01:38.479Z,2.97
2022-12-28T07:04:24.241Z,3.33
2022-12-28T07:07:10.208Z,3.10
2022-12-28T07:09:56.161Z,2.95
2022-12-28T07:12:42.044Z,3.00
2022-12-28T07:15:27.949Z,3.25
2022-12-28T07:18:13.734Z,3.78
2022-12-28T07:21:14.357Z,3.95
2022-12-28T07:24:00.736Z,4.60
2022-12-28T07:26:46.729Z,4.28
2022-12-28T07:29:32.827Z,4.80
2022-12-28T07:32:18.552Z,5.25
2022-12-28T07:35:05.260Z,5.53
2022-12-28T07:37:51.181Z,4.78
2022-12-28T07:40:37.122Z,4.63
2022-12-28T07:43:22.825Z,4.38
2022-12-28T07:46:11.220Z,4.55
2022-12-28T07:48:57.359Z,3.47
2022-12-28T07:51:43.543Z,4.80
2022-12-28T07:54:29.468Z,5.00
2022-12-28T07:57:15.463Z,4.10
2022-12-28T08:00:02.279Z,3.85
2022-12-28T09:14:04.999Z,8.55
2022-12-28T09:16:52.788Z,8.07
2022-12-28T09:19:38.496Z,7.03
2022-12-28T09:22:24.450Z,8.90
2022-12-28T09:25:10.261Z,9.38
2022-12-28T09:27:59.298Z,11.20
2022-12-28T09:30:45.631Z,11.43
2022-12-28T09:34:23.272Z,10.20
2022-12-28T09:36:56.128Z,8.48
2022-12-28T09:39:42.070Z,7.82
2022-12-28T09:42:29.470Z,7.10
2022-12-28T09:45:16.438Z,6.38
2022-12-28T09:48:13.404Z,6.88
2022-12-28T09:50:59.411Z,6.78
2022-12-28T09:53:45.520Z,6.50
2022-12-28T09:56:43.133Z,7.13
2022-12-28T09:59:32.276Z,7.60
2022-12-28T10:02:30.689Z,7.43
2022-12-28T10:05:16.557Z,6.85
2022-12-28T10:08:03.124Z,19.40
2022-12-28T10:10:50.759Z,17.05
2022-12-28T10:13:55.999Z,18.75
2022-12-28T10:16:48.336Z,18.27
2022-12-28T10:19:34.883Z,18.45
2022-12-28T10:22:21.752Z,17.95
2022-12-28T10:25:33.961Z,18.17
2022-12-28T10:28:21.674Z,16.50
2022-12-28T10:31:09.969Z,17.38
2022-12-28T10:33:55.770Z,17.63
2022-12-28T10:36:41.814Z,23.17
2022-12-28T10:39:30.228Z,26.00
2022-12-28T10:42:41.669Z,25.60
2022-12-28T10:45:48.195Z,27.00
2022-12-28T10:48:37.231Z,27.23
2022-12-28T10:51:25.145Z,26.65
2022-12-28T10:54:28.147Z,27.83
2022-12-28T10:57:19.167Z,28.88
2022-12-28T11:00:22.875Z,29.52
2022-12-28T11:03:22.170Z,30.40
2022-12-28T11:06:27.232Z,30.40
2022-12-28T11:09:22.526Z,27.63
2022-12-28T11:12:23.070Z,26.77
2022-12-28T11:15:14.721Z,26.27
2022-12-28T11:18:20.966Z,23.55
2022-12-28T11:21:11.036Z,20.42
2022-12-28T11:23:56.922Z,21.75
2022-12-28T11:26:48.833Z,22.45
2022-12-28T11:29:34.673Z,21.70
2022-12-28T11:32:35.956Z,22.42
2022-12-28T11:35:25.018Z,23.00
2022-12-28T11:38:12.700Z,22.50
2022-12-28T11:40:59.451Z,21.23
2022-12-28T11:43:50.301Z,15.25
2022-12-28T11:46:37.179Z,13.73
2022-12-28T11:49:22.976Z,9.63
2022-12-28T11:52:17.908Z,9.15
2022-12-28T11:55:22.270Z,9.35
2022-12-28T11:58:29.948Z,8.60
2022-12-28T13:13:54.813Z,8.95
2022-12-28T13:16:41.384Z,9.70
2022-12-28T13:19:29.727Z,9.50
2022-12-28T13:22:33.425Z,9.27
2022-12-28T13:25:31.933Z,10.80
2022-12-28T13:28:27.626Z,11.23
2022-12-28T13:31:22.343Z,9.98
2022-12-28T13:34:26.440Z,12.13
2022-12-28T13:37:17.025Z,12.18
2022-12-28T13:40:16.827Z,17.80
2022-12-28T13:43:08.927Z,16.02
2022-12-28T13:46:00.213Z,16.08
2022-12-28T13:48:50.063Z,14.65
2022-12-28T13:51:39.645Z,15.73
2022-12-28T13:54:27.213Z,15.52
2022-12-28T13:57:45.172Z,18.67
2022-12-28T14:00:22.405Z,22.27
2022-12-28T14:03:11.362Z,25.27
2022-12-28T14:06:02.664Z,21.00
2022-12-28T14:08:51.230Z,18.25
2022-12-28T14:11:38.609Z,17.13
2022-12-28T14:14:25.888Z,16.48
2022-12-28T14:17:13.438Z,16.73
2022-12-28T14:19:59.785Z,14.93
2022-12-28T14:22:47.193Z,16.60
2022-12-28T14:25:42.589Z,17.95
2022-12-28T14:28:38.043Z,16.40
2022-12-28T14:31:28.159Z,20.85
2022-12-28T14:34:30.307Z,18.50
2022-12-28T14:37:29.267Z,17.80
2022-12-28T14:40:32.733Z,22.30
2022-12-28T14:43:25.667Z,19.77
2022-12-28T14:46:36.105Z,22.65
2022-12-28T14:49:35.060Z,25.52
2022-12-28T14:52:23.218Z,25.58
2022-12-28T14:55:22.447Z,25.27
2022-12-28T14:58:20.099Z,24.20
2022-12-28T15:01:11.269Z,22.17
2022-12-28T15:04:05.882Z,22.95
2022-12-28T15:06:55.441Z,21.40
2022-12-28T15:09:44.166Z,22.45
2022-12-28T15:39:48.260Z,29.23
2022-12-28T15:42:40.094Z,28.23
2022-12-28T15:45:26.404Z,28.13
2022-12-28T15:48:12.353Z,26.27
2022-12-28T15:50:57.959Z,28.35
2022-12-28T15:53:43.914Z,25.58
2022-12-28T15:56:32.036Z,23.90
2022-12-28T15:59:18.019Z,24.48
2022-12-28T17:13:07.883Z,27.80
2022-12-28T17:15:54.196Z,25.65
2022-12-28T17:18:40.084Z,26.08
2022-12-28T17:21:26.348Z,24.63
2022-12-28T17:24:12.262Z,25.70
2022-12-28T17:27:05.206Z,24.85
2022-12-28T17:29:53.804Z,23.83
2022-12-28T17:32:39.787Z,25.20
2022-12-28T17:35:26.194Z,21.83
2022-12-28T17:38:12.286Z,21.15
2022-12-28T17:40:58.095Z,21.02
2022-12-28T17:43:52.596Z,20.38
2022-12-28T17:46:41.007Z,25.52
2022-12-28T17:49:27.305Z,25.85
2022-12-28T17:52:17.391Z,28.42
2022-12-28T17:55:03.770Z,26.42
2022-12-28T17:57:49.786Z,27.92
2022-12-28T18:29:46.114Z,31.23
2022-12-28T18:32:32.527Z,30.95
2022-12-28T18:35:18.744Z,29.95
2022-12-28T18:38:05.247Z,28.30
2022-12-28T18:40:53.853Z,27.95
2022-12-28T18:43:41.699Z,27.85
2022-12-28T18:46:29.165Z,24.83
2022-12-28T18:49:17.039Z,24.75
2022-12-28T18:52:04.354Z,23.30
2022-12-28T18:54:51.552Z,23.45
2022-12-28T18:57:39.671Z,23.65
2022-12-28T19:00:27.210Z,21.60
2022-12-28T19:03:14.655Z,22.20
2022-12-28T19:06:04.649Z,25.92
2022-12-28T19:08:53.027Z,25.55
2022-12-28T19:11:40.565Z,22.45
2022-12-28T19:14:28.056Z,21.65
2022-12-28T19:17:14.453Z,20.92
2022-12-28T19:20:01.713Z,23.60
2022-12-28T19:22:48.365Z,24.92
2022-12-28T19:25:39.777Z,26.70
2022-12-28T19:28:26.426Z,24.00
2022-12-28T20:16:30.923Z,24.42
2022-12-28T20:19:16.859Z,22.42
2022-12-28T20:22:03.035Z,24.42
2022-12-28T20:24:48.923Z,25.95
2022-12-28T20:27:35.147Z,28.52
2022-12-28T20:30:21.228Z,31.48
2022-12-28T20:33:07.177Z,28.25
2022-12-28T20:36:00.810Z,29.80
2022-12-28T20:38:47.797Z,25.77
2022-12-28T20:41:52.563Z,27.75
2022-12-28T20:44:38.784Z,28.50
2022-12-28T20:47:24.964Z,26.80
2022-12-28T20:50:10.893Z,28.95
2022-12-28T20:52:56.710Z,27.90
2022-12-28T20:55:42.705Z,28.65
2022-12-28T20:58:28.643Z,28.05
2022-12-28T21:01:15.746Z,26.20
2022-12-28T21:04:01.688Z,25.48
2022-12-28T21:06:47.480Z,26.60
2022-12-28T21:09:33.444Z,26.38
2022-12-28T21:12:19.277Z,29.02
2022-12-28T21:15:05.703Z,28.15
2022-12-28T21:17:51.621Z,27.45
2022-12-28T21:20:39.308Z,26.58
2022-12-28T21:23:25.067Z,25.42
2022-12-28T21:26:16.442Z,25.77
2022-12-28T21:29:02.506Z,23.20
2022-12-28T21:31:48.525Z,20.73
2022-12-28T21:34:34.328Z,20.25
2022-12-28T21:37:35.369Z,20.58
2022-12-28T21:40:21.474Z,19.63
2022-12-28T21:43:07.320Z,16.55
2022-12-28T21:46:12.277Z,17.50
2022-12-28T21:48:58.079Z,18.35
2022-12-28T21:51:44.085Z,17.92
2022-12-28T21:54:30.287Z,20.52
2022-12-28T21:57:16.121Z,18.50
2022-12-28T22:00:22.049Z,17.90
2022-12-28T22:03:26.706Z,20.45
2022-12-28T22:06:12.809Z,19.75
2022-12-28T22:09:17.200Z,20.80
2022-12-28T22:12:22.033Z,21.70
2022-12-28T22:15:28.160Z,24.70
2022-12-28T22:18:53.204Z,27.02
2022-12-28T22:21:29.476Z,25.58
2022-12-28T22:25:29.457Z,24.88
2022-12-28T22:28:15.999Z,23.85
2022-12-28T22:31:08.785Z,25.38
2022-12-28T22:33:55.634Z,25.13
2022-12-28T22:36:41.857Z,24.30
2022-12-28T22:39:27.497Z,25.02
2022-12-28T22:42:15.569Z,23.73
2022-12-28T22:45:01.345Z,22.17
2022-12-28T22:47:48.163Z,22.65
2022-12-28T22:50:39.663Z,22.17
2022-12-28T22:53:28.645Z,22.98
2022-12-28T22:56:20.058Z,23.63
2022-12-28T22:59:07.662Z,24.80
2022-12-28T23:01:56.937Z,29.70
2022-12-28T23:04:42.685Z,30.60
2022-12-28T23:07:28.581Z,31.55
2022-12-28T23:10:14.845Z,27.15
2022-12-28T23:13:00.631Z,24.50
2022-12-28T23:15:55.197Z,22.90
2022-12-28T23:18:59.648Z,21.98
2022-12-28T23:22:04.358Z,22.80
2022-12-28T23:25:08.544Z,23.05
2022-12-28T23:27:54.342Z,22.83
2022-12-28T23:30:43.032Z,22.23
2022-12-28T23:33:28.862Z,21.75
2022-12-28T23:36:14.680Z,24.15
2022-12-28T23:39:00.555Z,24.95
2022-12-28T23:41:49.319Z,30.05
2022-12-28T23:44:35.583Z,28.50
2022-12-28T23:47:21.460Z,28.88
2022-12-28T23:50:08.329Z,27.35
2022-12-28T23:52:54.123Z,24.50
2022-12-28T23:55:40.068Z,24.40
2022-12-28T23:58:25.997Z,24.83
